createdAt,value
2023-01-21T00:01:39.529Z,102547.66
2023-01-21T00:04:09.759Z,102551.19
2023-01-21T00:06:38.062Z,102552.16
2023-01-21T00:09:06.205Z,102554.88
2023-01-21T00:11:34.365Z,102550.44
2023-01-21T00:14:03.936Z,102552.25
2023-01-21T00:16:31.964Z,102556.75
2023-01-21T00:18:59.976Z,102551.38
2023-01-21T00:21:28.079Z,102554.09
2023-01-21T00:23:56.075Z,102553.22
2023-01-21T00:26:24.109Z,102552.38
2023-01-21T00:28:52.106Z,102551.50
2023-01-21T00:31:22.605Z,102551.50
2023-01-21T00:33:50.726Z,102554.25
2023-01-21T00:36:18.806Z,102561.41
2023-01-21T00:38:50.026Z,102559.59
2023-01-21T00:41:18.552Z,102565.88
2023-01-21T00:43:49.034Z,102574.84
2023-01-21T00:46:17.343Z,102572.16
2023-01-21T00:48:46.897Z,102582.03
2023-01-21T00:51:14.993Z,102588.31
2023-01-21T00:53:43.007Z,102593.69
2023-01-21T00:56:13.519Z,102604.41
2023-01-21T00:58:43.436Z,102611.56
2023-01-21T01:01:13.505Z,102612.53
2023-01-21T01:03:42.528Z,102621.47
2023-01-21T01:06:13.754Z,102626.81
2023-01-21T01:08:41.784Z,102634.00
2023-01-21T01:11:09.867Z,102630.44
2023-01-21T01:13:38.268Z,102644.78
2023-01-21T01:16:07.008Z,102640.31
2023-01-21T01:18:37.611Z,102647.50
2023-01-21T01:21:07.023Z,102657.28
2023-01-21T01:23:36.380Z,102671.59
2023-01-21T01:26:06.253Z,102673.41
2023-01-21T01:28:35.057Z,102681.50
2023-01-21T01:31:05.645Z,102685.94
2023-01-21T01:33:34.185Z,102685.94
2023-01-21T01:36:03.034Z,102684.16
2023-01-21T01:38:31.531Z,102686.88
2023-01-21T01:41:00.960Z,102688.69
2023-01-21T01:43:50.638Z,102688.75
2023-01-21T01:46:18.710Z,102691.47
2023-01-21T01:48:51.200Z,102695.97
2023-01-21T01:51:24.199Z,102692.41
2023-01-21T01:53:53.261Z,102703.19
2023-01-21T01:56:23.230Z,102706.75
2023-01-21T01:58:51.332Z,102708.59
2023-01-21T02:01:19.380Z,102709.53
2023-01-21T02:03:58.530Z,102715.75
2023-01-21T02:06:27.370Z,102718.53
2023-01-21T02:08:57.090Z,102721.22
2023-01-21T02:11:26.589Z,102725.75
2023-01-21T02:13:58.782Z,102728.44
2023-01-21T02:16:59.119Z,102728.47
2023-01-21T02:19:44.197Z,102727.66
2023-01-21T02:22:22.657Z,102737.50
2023-01-21T02:25:38.825Z,102742.00
2023-01-21T02:28:39.302Z,102734.88
2023-01-21T02:31:39.707Z,102740.28
2023-01-21T02:34:22.327Z,102742.09
2023-01-21T02:37:01.857Z,102745.72
2023-01-21T02:39:49.771Z,102751.97
2023-01-21T02:42:25.894Z,102746.66
2023-01-21T02:45:03.578Z,102747.59
2023-01-21T02:47:38.400Z,102750.31
2023-01-21T02:50:13.817Z,102752.03
2023-01-21T02:52:43.975Z,102757.47
2023-01-21T02:55:17.334Z,102760.16
2023-01-21T02:57:50.460Z,102774.41
2023-01-21T03:00:22.345Z,102774.53
2023-01-21T03:03:23.328Z,102776.28
2023-01-21T03:06:21.526Z,102779.91
2023-01-21T03:08:54.802Z,102774.63
2023-01-21T03:11:24.463Z,102784.41
2023-01-21T03:14:24.651Z,102780.88
2023-01-21T03:17:00.342Z,102785.34
2023-01-21T03:19:39.218Z,102787.16
2023-01-21T03:22:16.042Z,102783.56
2023-01-21T03:24:47.987Z,102797.91
2023-01-21T03:27:19.988Z,102790.81
2023-01-21T03:29:50.887Z,102786.41
2023-01-21T03:32:21.924Z,102799.78
2023-01-21T03:34:54.837Z,102792.75
2023-01-21T03:37:31.675Z,102798.00
2023-01-21T03:40:11.258Z,102803.41
2023-01-21T03:42:39.495Z,102806.97
2023-01-21T03:45:08.933Z,102808.75
2023-01-21T03:47:39.470Z,102800.78
2023-01-21T03:50:11.866Z,102814.19
2023-01-21T03:52:43.264Z,102812.31
2023-01-21T03:55:12.822Z,102821.19
2023-01-21T03:57:40.928Z,102823.00
2023-01-21T04:00:10.999Z,102816.72
2023-01-21T04:02:39.249Z,102824.78
2023-01-21T04:05:07.855Z,102821.19
2023-01-21T04:07:35.923Z,102829.22
2023-01-21T04:10:06.252Z,102834.63
2023-01-21T04:12:37.121Z,102828.38
2023-01-21T04:15:05.901Z,102830.25
2023-01-21T04:17:33.850Z,102829.38
2023-01-21T04:20:02.217Z,102826.72
2023-01-21T04:22:30.191Z,102833.94
2023-01-21T04:24:58.201Z,102840.22
2023-01-21T04:27:27.525Z,102858.94
2023-01-21T04:29:55.581Z,102851.84
2023-01-21T04:32:23.781Z,102853.72
2023-01-21T04:34:51.882Z,102854.59
2023-01-21T04:37:19.963Z,102843.88
2023-01-21T04:39:48.027Z,102846.59
2023-01-21T04:42:16.007Z,102835.88
2023-01-21T04:44:46.088Z,102843.97
2023-01-21T04:47:14.210Z,102850.25
2023-01-21T04:49:42.251Z,102847.56
2023-01-21T04:52:10.350Z,102847.56
2023-01-21T04:54:38.305Z,102857.41
2023-01-21T04:57:08.535Z,102861.84
2023-01-21T04:59:38.860Z,102860.13
2023-01-21T05:02:08.635Z,102865.53
2023-01-21T05:04:36.631Z,102868.19
2023-01-21T05:07:05.513Z,102871.78
2023-01-21T05:09:36.025Z,102872.72
2023-01-21T05:12:04.328Z,102878.06
2023-01-21T05:14:32.320Z,102878.06
2023-01-21T05:17:00.802Z,102876.31
2023-01-21T05:19:30.182Z,102883.47
2023-01-21T05:21:58.221Z,102883.50
2023-01-21T05:24:26.221Z,102887.09
2023-01-21T05:26:54.207Z,102886.19
2023-01-21T05:29:22.403Z,102886.28
2023-01-21T05:31:50.595Z,102889.78
2023-01-21T05:34:18.589Z,102889.84
2023-01-21T05:36:48.277Z,102898.75
2023-01-21T05:39:16.404Z,102898.75
2023-01-21T05:41:46.866Z,102896.09
2023-01-21T05:44:17.571Z,102901.44
2023-01-21T05:46:45.843Z,102910.41
2023-01-21T05:49:13.859Z,102912.22
2023-01-21T05:51:41.828Z,102919.38
2023-01-21T05:54:11.127Z,102922.97
2023-01-21T05:56:39.097Z,102924.78
2023-01-21T05:59:09.972Z,102925.69
2023-01-21T06:01:38.048Z,102928.41
2023-01-21T06:04:06.607Z,102933.78
2023-01-21T06:06:34.634Z,102940.00
2023-01-21T06:09:02.624Z,102940.94
2023-01-21T06:11:32.266Z,102944.53
2023-01-21T06:14:00.358Z,102945.44
2023-01-21T06:16:28.367Z,102949.03
2023-01-21T06:18:56.365Z,102949.03
2023-01-21T06:21:24.367Z,102965.09
2023-01-21T06:23:52.459Z,102958.00
2023-01-21T06:26:20.559Z,102965.16
2023-01-21T06:28:50.030Z,102974.94
2023-01-21T06:31:18.152Z,102967.84
2023-01-21T06:33:46.566Z,102975.88
2023-01-21T06:36:14.568Z,102980.34
2023-01-21T06:38:42.648Z,102983.09
2023-01-21T06:41:10.722Z,102977.75
2023-01-21T06:43:38.788Z,102984.91
2023-01-21T06:46:08.818Z,102984.00
2023-01-21T06:48:36.911Z,102989.34
2023-01-21T06:51:05.273Z,102999.16
2023-01-21T06:53:33.385Z,102997.38
2023-01-21T06:56:01.319Z,103000.97
2023-01-21T06:58:29.386Z,103009.94
2023-01-21T07:01:00.037Z,103010.81
2023-01-21T07:03:30.333Z,103009.94
2023-01-21T07:05:58.366Z,103024.19
2023-01-21T07:08:26.462Z,103022.44
2023-01-21T07:10:54.566Z,103026.91
2023-01-21T07:13:23.031Z,103030.47
2023-01-21T07:15:51.060Z,103037.63
2023-01-21T07:18:19.122Z,103048.31
2023-01-21T07:20:48.595Z,103042.09
2023-01-21T07:23:16.653Z,103054.56
2023-01-21T07:25:44.793Z,103053.72
2023-01-21T07:28:12.813Z,103057.28
2023-01-21T07:30:40.920Z,103061.75
2023-01-21T07:33:09.816Z,103060.88
2023-01-21T07:35:38.016Z,103071.56
2023-01-21T07:38:07.536Z,103072.44
2023-01-21T07:40:35.655Z,103074.25
2023-01-21T07:43:05.847Z,103078.72
2023-01-21T07:45:33.888Z,103080.50
2023-01-21T07:48:01.987Z,103092.13
2023-01-21T07:50:30.023Z,103095.69
2023-01-21T07:52:59.632Z,103091.25
2023-01-21T07:55:29.783Z,103088.56
2023-01-21T07:57:58.503Z,103093.09
2023-01-21T08:00:29.318Z,103095.72
2023-01-21T08:02:57.476Z,103092.13
2023-01-21T08:05:27.110Z,103116.22
2023-01-21T08:07:58.757Z,103122.50
2023-01-21T08:10:28.258Z,103119.81
2023-01-21T08:12:56.193Z,103126.91
2023-01-21T08:15:24.260Z,103126.97
2023-01-21T08:17:52.161Z,103128.72
2023-01-21T08:20:20.278Z,103129.59
2023-01-21T08:22:48.306Z,103136.75
2023-01-21T08:25:16.703Z,103145.66
2023-01-21T08:27:46.263Z,103147.44
2023-01-21T08:30:15.237Z,103147.44
2023-01-21T08:32:47.875Z,103158.16
2023-01-21T08:35:16.081Z,103154.56
2023-01-21T08:37:44.531Z,103159.91
2023-01-21T08:40:15.025Z,103159.03
2023-01-21T08:42:43.039Z,103160.84
2023-01-21T08:45:15.324Z,103158.16
2023-01-21T08:47:43.747Z,103156.41
2023-01-21T08:50:12.488Z,103167.06
2023-01-21T08:52:40.435Z,103166.19
2023-01-21T08:55:08.915Z,103162.63
2023-01-21T08:57:36.945Z,103166.19
2023-01-21T09:00:05.832Z,103161.75
2023-01-21T09:02:35.188Z,103154.56
2023-01-21T09:05:03.207Z,103163.47
2023-01-21T09:07:31.270Z,103157.22
2023-01-21T09:09:59.268Z,103155.44
2023-01-21T09:12:27.282Z,103166.13
2023-01-21T09:14:55.359Z,103161.69
2023-01-21T09:17:23.629Z,103161.69
2023-01-21T09:19:55.381Z,103164.31
2023-01-21T09:22:23.645Z,103161.66
2023-01-21T09:24:51.960Z,103162.56
2023-01-21T09:27:21.018Z,103166.13
2023-01-21T09:29:48.947Z,103169.69
2023-01-21T09:32:16.973Z,103172.34
2023-01-21T09:34:44.950Z,103178.59
2023-01-21T09:37:14.271Z,103188.41
2023-01-21T09:39:42.591Z,103184.81
2023-01-21T09:42:19.026Z,103182.16
2023-01-21T09:44:50.188Z,103187.50
2023-01-21T09:47:23.951Z,103206.25
2023-01-21T09:49:55.377Z,103206.19
2023-01-21T09:52:30.936Z,103212.41
2023-01-21T09:54:59.883Z,103214.16
2023-01-21T09:57:54.931Z,103210.63
2023-01-21T10:00:32.280Z,103226.66
2023-01-21T10:03:09.877Z,103223.13
2023-01-21T10:05:53.980Z,103231.09
2023-01-21T10:08:31.904Z,103221.25
2023-01-21T10:11:18.844Z,103227.50
2023-01-21T10:14:05.822Z,103211.44
2023-01-21T10:16:41.444Z,103216.78
2023-01-21T10:19:15.555Z,103217.72
2023-01-21T10:21:50.955Z,103218.53
2023-01-21T10:24:25.691Z,103217.31
2023-01-21T10:26:55.187Z,103225.94
2023-01-21T10:29:26.155Z,103215.97
2023-01-21T10:31:59.980Z,103222.91
2023-01-21T10:34:31.374Z,103219.19
2023-01-21T10:37:08.596Z,103218.16
2023-01-21T10:39:46.091Z,103219.16
2023-01-21T10:42:41.509Z,103225.06
2023-01-21T10:45:21.184Z,103231.09
2023-01-21T10:47:55.172Z,103215.75
2023-01-21T10:50:31.675Z,103219.13
2023-01-21T10:53:06.688Z,103223.41
2023-01-21T10:55:52.114Z,103221.47
2023-01-21T10:58:28.898Z,103218.69
2023-01-21T11:01:01.385Z,103226.63
2023-01-21T11:03:38.836Z,103213.13
2023-01-21T11:06:09.301Z,103215.69
2023-01-21T11:08:38.018Z,103218.28
2023-01-21T11:11:09.690Z,103220.84
2023-01-21T11:13:37.710Z,103218.16
2023-01-21T11:16:06.317Z,103216.28
2023-01-21T11:18:37.494Z,103203.72
2023-01-21T11:21:18.447Z,103203.66
2023-01-21T11:23:55.320Z,103201.84
2023-01-21T11:26:28.712Z,103202.66
2023-01-21T11:29:13.241Z,103205.28
2023-01-21T11:31:43.302Z,103205.28
2023-01-21T11:34:15.321Z,103200.66
2023-01-21T11:36:56.520Z,103209.44
2023-01-21T11:39:25.145Z,103209.34
2023-01-21T11:41:56.362Z,103206.59
2023-01-21T11:44:25.559Z,103210.19
2023-01-21T11:46:54.005Z,103203.56
2023-01-21T11:49:28.430Z,103201.78
2023-01-21T11:52:17.128Z,103207.13
2023-01-21T11:54:45.619Z,103219.56
2023-01-21T11:57:27.120Z,103212.41
2023-01-21T11:59:59.379Z,103207.16
2023-01-21T12:02:31.457Z,103218.69
2023-01-21T12:05:04.653Z,103216.75
2023-01-21T12:07:35.304Z,103221.97
2023-01-21T12:10:09.714Z,103211.13
2023-01-21T12:12:54.451Z,103215.53
2023-01-21T12:15:41.192Z,103219.84
2023-01-21T12:18:26.303Z,103209.09
2023-01-21T12:21:03.793Z,103216.13
2023-01-21T12:23:58.520Z,103214.31
2023-01-21T12:26:37.945Z,103212.44
2023-01-21T12:29:24.859Z,103217.72
2023-01-21T12:31:59.427Z,103224.78
2023-01-21T12:34:34.602Z,103211.38
2023-01-21T12:37:07.296Z,103203.34
2023-01-21T12:39:38.044Z,103201.53
2023-01-21T12:42:11.766Z,103212.25
2023-01-21T12:44:47.254Z,103210.44
2023-01-21T12:47:23.447Z,103208.63
2023-01-21T12:50:04.320Z,103190.81
2023-01-21T12:52:38.641Z,103207.75
2023-01-21T12:55:16.794Z,103202.41
2023-01-21T12:57:52.037Z,103205.03
2023-01-21T13:00:26.243Z,103189.00
2023-01-21T13:03:01.310Z,103190.72
2023-01-21T13:05:37.507Z,103187.13
2023-01-21T13:08:28.808Z,103186.25
2023-01-21T13:11:06.704Z,103194.25
2023-01-21T13:13:39.500Z,103189.75
2023-01-21T13:16:11.729Z,103187.06
2023-01-21T13:18:40.491Z,103188.81
2023-01-21T13:21:19.178Z,103185.19
2023-01-21T13:23:52.463Z,103180.72
2023-01-21T13:26:29.067Z,103182.47
2023-01-21T13:29:02.590Z,103188.75
2023-01-21T13:31:37.025Z,103189.56
2023-01-21T13:34:12.402Z,103192.50
2023-01-21T13:36:54.975Z,103192.63
2023-01-21T13:39:30.080Z,103191.78
2023-01-21T13:42:10.713Z,103199.72
2023-01-21T13:44:55.840Z,103204.97
2023-01-21T13:47:41.454Z,103201.28
2023-01-21T13:50:22.587Z,103204.72
2023-01-21T13:53:19.847Z,103210.88
2023-01-21T13:55:57.855Z,103204.50
2023-01-21T13:58:36.398Z,103206.22
2023-01-21T14:01:10.762Z,103215.06
2023-01-21T14:03:46.069Z,103212.31
2023-01-21T14:06:24.575Z,103215.00
2023-01-21T14:08:58.625Z,103217.59
2023-01-21T14:11:31.071Z,103218.41
2023-01-21T14:14:16.886Z,103225.94
2023-01-21T14:17:15.229Z,103229.69
2023-01-21T14:20:16.603Z,103228.28
2023-01-21T14:23:12.139Z,103238.78
2023-01-21T14:26:04.916Z,103239.50
2023-01-21T14:28:38.858Z,103235.78
2023-01-21T14:31:14.692Z,103238.34
2023-01-21T14:33:47.588Z,103247.25
2023-01-21T14:36:20.805Z,103244.56
2023-01-21T14:39:03.725Z,103235.66
2023-01-21T14:41:56.501Z,103236.53
2023-01-21T14:44:43.136Z,103243.69
2023-01-21T14:47:19.855Z,103231.13
2023-01-21T14:49:49.724Z,103239.09
2023-01-21T14:52:21.069Z,103238.16
2023-01-21T14:54:50.145Z,103241.72
2023-01-21T14:57:29.359Z,103242.53
2023-01-21T15:00:05.851Z,103244.25
2023-01-21T15:02:36.556Z,103252.31
2023-01-21T15:05:16.704Z,103248.75
2023-01-21T15:07:49.148Z,103251.41
2023-01-21T15:10:19.401Z,103254.97
2023-01-21T15:12:53.100Z,103246.06
2023-01-21T15:15:31.132Z,103249.63
2023-01-21T15:18:23.387Z,103240.78
2023-01-21T15:20:57.995Z,103248.69
2023-01-21T15:23:41.413Z,103244.13
2023-01-21T15:26:32.550Z,103243.22
2023-01-21T15:29:32.096Z,103256.53
2023-01-21T15:32:27.314Z,103259.16
2023-01-21T15:34:59.164Z,103256.53
2023-01-21T15:37:28.340Z,103253.94
2023-01-21T15:40:14.009Z,103253.97
2023-01-21T15:42:50.797Z,103259.41
2023-01-21T15:45:28.958Z,103259.47
2023-01-21T15:48:44.102Z,103261.25
2023-01-21T15:51:21.102Z,103254.94
2023-01-21T15:54:10.103Z,103262.97
2023-01-21T15:56:54.751Z,103257.59
2023-01-21T15:59:39.467Z,103255.72
2023-01-21T16:02:18.276Z,103258.41
2023-01-21T16:04:59.077Z,103253.91
2023-01-21T16:07:41.615Z,103260.09
2023-01-21T16:10:19.243Z,103265.44
2023-01-21T16:12:59.348Z,103264.50
2023-01-21T16:15:40.743Z,103274.34
2023-01-21T16:18:20.860Z,103282.38
2023-01-21T16:20:53.350Z,103286.88
2023-01-21T16:23:23.747Z,103282.38
2023-01-21T16:25:54.617Z,103285.88
2023-01-21T16:28:24.002Z,103285.00
2023-01-21T16:30:57.487Z,103293.94
2023-01-21T16:33:26.126Z,103292.13
2023-01-21T16:35:57.272Z,103298.41
2023-01-21T16:38:27.044Z,103300.22
2023-01-21T16:41:20.601Z,103297.59
2023-01-21T16:43:52.341Z,103304.72
2023-01-21T16:46:23.676Z,103299.41
2023-01-21T16:48:53.389Z,103300.25
2023-01-21T16:51:24.656Z,103299.34
2023-01-21T16:53:53.915Z,103296.66
2023-01-21T16:56:27.388Z,103303.78
2023-01-21T16:58:57.336Z,103294.81
2023-01-21T17:01:28.706Z,103299.34
2023-01-21T17:03:56.793Z,103293.97
2023-01-21T17:06:28.589Z,103293.09
2023-01-21T17:08:59.806Z,103292.13
2023-01-21T17:11:28.739Z,103296.59
2023-01-21T17:13:59.888Z,103299.28
2023-01-21T17:16:29.956Z,103303.03
2023-01-21T17:19:01.649Z,103310.13
2023-01-21T17:21:36.871Z,103309.19
2023-01-21T17:24:07.935Z,103311.88
2023-01-21T17:26:40.169Z,103312.66
2023-01-21T17:29:13.175Z,103320.59
2023-01-21T17:31:43.370Z,103318.84
2023-01-21T17:34:23.541Z,103324.22
2023-01-21T17:36:52.909Z,103335.69
2023-01-21T17:40:01.120Z,103340.91
2023-01-21T17:42:40.128Z,103331.84
2023-01-21T17:45:20.571Z,103334.41
2023-01-21T17:48:08.704Z,103334.31
2023-01-21T17:50:37.742Z,103334.25
2023-01-21T17:53:10.022Z,103335.97
2023-01-21T17:55:38.586Z,103332.38
2023-01-21T17:58:37.258Z,103342.19
2023-01-21T18:01:06.804Z,103342.19
2023-01-21T18:03:34.814Z,103336.81
2023-01-21T18:06:03.447Z,103344.81
2023-01-21T18:08:31.522Z,103338.56
2023-01-21T18:10:59.547Z,103341.19
2023-01-21T18:13:27.539Z,103334.94
2023-01-21T18:15:55.587Z,103334.00
2023-01-21T18:18:28.400Z,103345.63
2023-01-21T18:20:56.793Z,103336.69
2023-01-21T18:23:27.064Z,103335.75
2023-01-21T18:25:55.049Z,103333.97
2023-01-21T18:28:25.853Z,103341.97
2023-01-21T18:30:55.891Z,103338.38
2023-01-21T18:33:26.133Z,103336.63
2023-01-21T18:35:54.600Z,103347.28
2023-01-21T18:38:27.408Z,103346.38
2023-01-21T18:40:56.147Z,103340.09
2023-01-21T18:43:24.305Z,103346.28
2023-01-21T18:45:54.293Z,103344.53
2023-01-21T18:48:28.795Z,103342.69
2023-01-21T18:50:57.177Z,103341.81
2023-01-21T18:53:27.701Z,103340.91
2023-01-21T18:55:55.926Z,103340.84
2023-01-21T18:58:24.154Z,103348.94
2023-01-21T19:00:52.340Z,103351.59
2023-01-21T19:03:22.764Z,103343.53
2023-01-21T19:05:52.550Z,103345.28
2023-01-21T19:08:24.810Z,103353.34
2023-01-21T19:10:53.211Z,103349.75
2023-01-21T19:13:21.187Z,103353.25
2023-01-21T19:15:50.196Z,103347.91
2023-01-21T19:18:18.304Z,103338.03
2023-01-21T19:20:46.482Z,103341.59
2023-01-21T19:23:17.457Z,103332.69
2023-01-21T19:25:50.442Z,103334.44
2023-01-21T19:28:18.975Z,103335.34
2023-01-21T19:30:49.439Z,103322.84
2023-01-21T19:33:17.790Z,103333.56
2023-01-21T19:35:46.611Z,103332.66
2023-01-21T19:38:18.992Z,103322.75
2023-01-21T19:40:47.240Z,103321.00
2023-01-21T19:43:17.857Z,103323.69
2023-01-21T19:45:46.056Z,103320.13
2023-01-21T19:48:15.807Z,103323.63
2023-01-21T19:50:44.240Z,103315.59
2023-01-21T19:53:16.933Z,103317.31
2023-01-21T19:55:47.032Z,103320.06
2023-01-21T19:58:19.717Z,103318.25
2023-01-21T20:00:49.573Z,103320.00
2023-01-21T20:03:19.213Z,103319.06
2023-01-21T20:05:49.849Z,103326.19
2023-01-21T20:08:24.851Z,103326.19
2023-01-21T20:10:52.912Z,103330.66
2023-01-21T20:13:21.323Z,103329.72
2023-01-21T20:15:52.136Z,103332.41
2023-01-21T20:18:23.202Z,103329.72
2023-01-21T20:20:51.818Z,103335.97
2023-01-21T20:23:22.950Z,103326.09
2023-01-21T20:25:57.008Z,103335.91
2023-01-21T20:28:26.809Z,103333.19
2023-01-21T20:30:57.020Z,103333.16
2023-01-21T20:33:26.478Z,103324.22
2023-01-21T20:35:56.694Z,103324.22
2023-01-21T20:38:30.148Z,103332.25
2023-01-21T20:40:58.290Z,103337.63
2023-01-21T20:43:26.542Z,103329.56
2023-01-21T20:45:55.880Z,103325.09
2023-01-21T20:48:26.901Z,103329.56
2023-01-21T20:50:55.393Z,103326.88
2023-01-21T20:53:24.822Z,103333.94
2023-01-21T20:55:54.108Z,103335.81
2023-01-21T20:58:23.028Z,103333.94
2023-01-21T21:00:51.384Z,103324.16
2023-01-21T21:03:19.832Z,103323.28
2023-01-21T21:05:49.296Z,103318.78
2023-01-21T21:08:18.989Z,103323.28
2023-01-21T21:10:50.689Z,103330.44
2023-01-21T21:13:19.445Z,103326.84
2023-01-21T21:15:54.824Z,103333.06
2023-01-21T21:18:22.914Z,103336.75
2023-01-21T21:20:50.847Z,103336.72
2023-01-21T21:23:18.938Z,103325.97
2023-01-21T21:25:49.118Z,103336.75
2023-01-21T21:28:18.390Z,103332.28
2023-01-21T21:30:46.541Z,103323.41
2023-01-21T21:33:18.915Z,103322.47
2023-01-21T21:35:47.890Z,103326.97
2023-01-21T21:38:17.768Z,103327.84
2023-01-21T21:40:48.348Z,103325.16
2023-01-21T21:43:32.360Z,103329.66
2023-01-21T21:46:22.923Z,103328.72
2023-01-21T21:48:52.223Z,103335.03
2023-01-21T21:51:21.718Z,103338.56
2023-01-21T21:53:50.334Z,103335.00
2023-01-21T21:56:20.934Z,103337.69
2023-01-21T21:58:49.843Z,103329.66
2023-01-21T22:01:22.358Z,103331.41
2023-01-21T22:03:50.928Z,103332.31
2023-01-21T22:06:19.934Z,103327.88
2023-01-21T22:08:48.437Z,103330.53
2023-01-21T22:11:20.173Z,103327.00
2023-01-21T22:13:50.275Z,103328.78
2023-01-21T22:16:20.216Z,103332.34
2023-01-21T22:18:48.576Z,103322.59
2023-01-21T22:21:18.916Z,103325.28
2023-01-21T22:23:47.114Z,103326.19
2023-01-21T22:26:16.896Z,103326.19
2023-01-21T22:28:46.325Z,103324.44
2023-01-21T22:31:16.916Z,103321.75
2023-01-21T22:33:45.217Z,103320.00
2023-01-21T22:36:15.725Z,103317.31
2023-01-21T22:38:45.058Z,103315.56
2023-01-21T22:41:13.772Z,103320.94
2023-01-21T22:43:44.820Z,103315.56
2023-01-21T22:46:17.307Z,103321.81
2023-01-21T22:48:46.217Z,103318.28
2023-01-21T22:51:16.526Z,103315.63
2023-01-21T22:53:44.898Z,103319.25
2023-01-21T22:56:13.921Z,103304.94
2023-01-21T22:58:45.050Z,103305.00
2023-01-21T23:01:24.506Z,103305.00
2023-01-21T23:03:53.721Z,103310.34
2023-01-21T23:06:22.216Z,103306.84
2023-01-21T23:08:50.630Z,103305.94
2023-01-21T23:11:20.392Z,103297.91
2023-01-21T23:13:49.165Z,103289.91
2023-01-21T23:16:20.954Z,103290.84
2023-01-21T23:18:50.886Z,103296.19
2023-01-21T23:21:20.599Z,103289.97
2023-01-21T23:23:48.906Z,103297.09
2023-01-21T23:26:19.249Z,103292.66
2023-01-21T23:28:47.597Z,103291.84
2023-01-21T23:31:18.097Z,103289.19
2023-01-21T23:33:51.779Z,103295.41
2023-01-21T23:36:20.574Z,103289.19
2023-01-21T23:38:50.170Z,103291.91
2023-01-21T23:41:19.880Z,103283.88
2023-01-21T23:43:47.963Z,103280.31
2023-01-21T23:46:19.587Z,103281.19
2023-01-21T23:48:48.258Z,103274.97
2023-01-21T23:51:18.782Z,103280.34
2023-01-21T23:53:49.315Z,103280.34
2023-01-21T23:56:20.779Z,103277.72
2023-01-21T23:58:49.459Z,103265.22
